Terminal Aerodrome Forecast
Issued by NWS

Home | Current Version | Previous Version | Text Only | Print | Product List | Glossary On
Versions: 1 2 3 4 5 6 7 8 9 10 11 12 13 14
000
FTAK31 PAFA 201134
TAFAMC
TAF
PAMC 201134Z 2012/2112 31005KT P6SM VCSH BKN060 BKN110
     FM201500 VRB03KT 5SM -SHRA BR SCT025 BKN050 OVC100
     FM202000 02007G13KT P6SM VCSH SCT050 BKN100
     FM210400 32004KT P6SM SCT050 BKN100=

USA.gov is the U.S. government's official web portal to all federal, state and local government web resources and services.